Time;durP1;ratioP1;P1;durP2;ratioP2;P2;SDS_P1;SDS_P2;PMS_P1;PMS_P2;Temp;Humidity;BMP_temperature;BMP_pressure;BME280_temperature;BME280_humidity;BME280_pressure;Samples;Min_cycle;Max_cycle;Signal;HPM_P1;HPM_P2
2021/05/06 00:02:28;;;;;;;4.32;1.75;;;;;;;-146.32;100.00;63746.28;645308;30;138674;-62
2021/05/06 00:03:12;;;;;;;3.83;1.90;;;;;;;-146.32;100.00;63746.28;644704;30;135981;-63
2021/05/06 00:05:17;;;;;;;4.78;1.75;;;;;;;-146.32;100.00;63746.28;642700;30;135613;-63
2021/05/06 00:08:47;;;;;;;4.38;2.08;;;;;;;-146.32;100.00;63746.28;654772;29;137622;-62
2021/05/06 00:09:50;;;;;;;5.82;2.03;;;;;;;-146.32;100.00;63746.28;659504;29;137634;-63
2021/05/06 00:14:32;;;;;;;3.25;1.90;;;;;;;-146.32;100.00;63746.28;657451;29;160792;-64
2021/05/06 00:30:36;;;;;;;2.83;1.60;;;;;;;-146.32;100.00;63746.28;649767;30;125553;-64
2021/05/06 00:31:20;;;;;;;3.25;1.80;;;;;;;-146.32;100.00;63746.28;648976;30;161066;-64
2021/05/06 00:32:06;;;;;;;3.83;2.05;;;;;;;-146.32;100.00;63746.28;648921;30;161504;-64
2021/05/06 00:32:28;;;;;;;4.40;2.20;;;;;;;-146.32;100.00;63746.28;649736;30;137348;-64
2021/05/06 00:32:54;;;;;;;3.95;1.90;;;;;;;-146.32;100.00;63746.28;652838;30;44468;-62
2021/05/06 00:33:15;;;;;;;3.53;1.80;;;;;;;-146.32;100.00;63746.28;650346;30;121917;-64
2021/05/06 00:33:36;;;;;;;6.60;2.10;;;;;;;-146.32;100.00;63746.28;653239;30;27514;-64
2021/05/06 00:33:57;;;;;;;4.63;2.17;;;;;;;-146.32;100.00;63746.28;653701;30;22409;-63
2021/05/06 00:34:18;;;;;;;3.65;1.98;;;;;;;-146.32;100.00;63746.28;653974;30;13147;-63
2021/05/06 00:34:40;;;;;;;2.95;1.73;;;;;;;-146.32;100.00;63746.28;653419;30;10259;-63
2021/05/06 00:35:01;;;;;;;3.58;1.77;;;;;;;-146.32;100.00;63746.28;653072;30;46269;-63
2021/05/06 00:35:25;;;;;;;4.72;1.65;;;;;;;-146.32;100.00;63746.28;653662;30;24513;-64
2021/05/06 00:35:47;;;;;;;7.25;2.03;;;;;;;-146.32;100.00;63746.28;650754;30;93427;-63
2021/05/06 00:36:08;;;;;;;4.03;2.10;;;;;;;-146.32;100.00;63746.28;654350;30;5401;-63
2021/05/06 00:36:33;;;;;;;2.92;1.75;;;;;;;-146.32;100.00;63746.28;661839;29;1555;-64
2021/05/06 00:36:55;;;;;;;4.93;1.92;;;;;;;-146.32;100.00;63746.28;664268;29;1915;-63
2021/05/06 00:37:18;;;;;;;4.78;1.98;;;;;;;-146.32;100.00;63746.28;663109;29;46116;-63
2021/05/06 00:37:54;;;;;;;3.28;1.80;;;;;;;-146.32;100.00;63746.28;664486;29;922;-63
2021/05/06 00:38:20;;;;;;;3.40;1.70;;;;;;;-146.32;100.00;63746.28;661655;29;80288;-63
2021/05/06 00:38:45;;;;;;;4.50;1.80;;;;;;;-146.32;100.00;63746.28;661807;29;78062;-64
2021/05/06 00:39:09;;;;;;;4.13;1.83;;;;;;;-146.32;100.00;63746.28;660949;29;92330;-64
2021/05/06 00:39:33;;;;;;;5.07;1.80;;;;;;;-146.32;100.00;63746.28;659642;29;116240;-62
2021/05/06 00:39:59;;;;;;;5.40;1.98;;;;;;;-146.32;100.00;63746.28;661584;29;92982;-63
2021/05/06 00:40:28;;;;;;;7.13;2.13;;;;;;;-146.32;100.00;63746.28;662392;29;61678;-62
2021/05/06 00:41:00;;;;;;;4.47;1.90;;;;;;;-146.32;100.00;63746.28;659763;29;129551;-63
2021/05/06 00:41:39;;;;;;;3.15;1.95;;;;;;;-146.32;100.00;63746.28;660055;29;138209;-63
2021/05/06 00:42:12;;;;;;;5.50;2.05;;;;;;;-146.32;100.00;63746.28;659715;29;152569;-63
2021/05/06 00:42:41;;;;;;;2.28;1.70;;;;;;;-146.32;100.00;63746.28;659501;29;130929;-64
2021/05/06 00:43:23;;;;;;;5.32;2.00;;;;;;;-146.32;100.00;63746.28;659368;29;135889;-62
2021/05/06 00:44:08;;;;;;;4.28;1.95;;;;;;;-146.32;100.00;63746.28;659476;29;137529;-63
2021/05/06 00:53:52;;;;;;;4.32;1.88;;;;;;;-146.32;100.00;63746.28;659844;29;138789;-62
2021/05/06 00:54:15;;;;;;;4.38;1.95;;;;;;;-146.32;100.00;63746.28;656555;29;136981;-62
2021/05/06 00:54:54;;;;;;;3.58;1.73;;;;;;;-146.32;100.00;63746.28;656836;29;138750;-64
2021/05/06 00:55:30;;;;;;;4.97;2.00;;;;;;;-146.32;100.00;63746.28;657575;29;129279;-63
2021/05/06 00:56:45;;;;;;;2.88;1.90;;;;;;;-146.32;100.00;63746.28;658914;29;138137;-64
2021/05/06 00:57:09;;;;;;;3.17;1.80;;;;;;;-146.32;100.00;63746.28;658909;29;137665;-64
2021/05/06 00:57:36;;;;;;;5.20;1.90;;;;;;;-146.32;100.00;63746.28;658532;29;86899;-63
2021/05/06 00:58:13;;;;;;;2.67;1.67;;;;;;;-146.32;100.00;63746.28;656783;29;132090;-64
2021/05/06 00:59:54;;;;;;;5.40;1.75;;;;;;;-146.32;100.00;63746.28;656755;29;136776;-64
2021/05/06 01:01:12;;;;;;;3.95;1.90;;;;;;;-146.32;100.00;63746.28;656487;29;124053;-64
2021/05/06 01:02:24;;;;;;;4.55;1.92;;;;;;;-146.32;100.00;63746.28;657092;29;137704;-64
2021/05/06 01:02:57;;;;;;;2.28;1.75;;;;;;;-146.32;100.00;63746.28;657414;29;135873;-64
2021/05/06 01:03:29;;;;;;;3.75;1.75;;;;;;;-146.32;100.00;63746.28;657002;29;137601;-64
2021/05/06 01:04:07;;;;;;;3.08;1.80;;;;;;;-146.32;100.00;63746.28;659908;29;137517;-64
2021/05/06 01:04:38;;;;;;;4.80;1.90;;;;;;;-146.32;100.00;63746.28;658534;29;137528;-63
2021/05/06 01:05:03;;;;;;;4.75;1.77;;;;;;;-146.32;100.00;63746.28;657887;29;136149;-63
2021/05/06 01:05:30;;;;;;;5.40;1.88;;;;;;;-146.32;100.00;63746.28;656923;29;115934;-63
2021/05/06 01:05:54;;;;;;;5.80;2.35;;;;;;;-146.32;100.00;63746.28;656290;29;136327;-63
2021/05/06 01:06:19;;;;;;;5.72;2.00;;;;;;;-146.32;100.00;63746.28;654353;29;105514;-64
2021/05/06 01:06:49;;;;;;;5.07;2.05;;;;;;;-146.32;100.00;63746.28;658491;29;92115;-63
2021/05/06 01:07:29;;;;;;;4.30;2.00;;;;;;;-146.32;100.00;63746.28;656558;29;136049;-64
2021/05/06 01:07:58;;;;;;;4.53;1.92;;;;;;;-146.32;100.00;63746.28;656797;29;138315;-63
2021/05/06 01:08:22;;;;;;;3.78;2.30;;;;;;;-146.32;100.00;63746.28;658908;29;137618;-64
2021/05/06 01:08:46;;;;;;;5.18;1.98;;;;;;;-146.32;100.00;63746.28;659463;29;135052;-64
2021/05/06 01:09:10;;;;;;;2.80;1.60;;;;;;;-146.32;100.00;63746.28;660448;29;113506;-63
2021/05/06 01:09:46;;;;;;;2.35;1.65;;;;;;;-146.32;100.00;63746.28;660970;29;98341;-62
2021/05/06 01:10:28;;;;;;;3.05;1.80;;;;;;;-146.32;100.00;63746.28;660141;29;107134;-63
2021/05/06 01:11:06;;;;;;;4.00;1.90;;;;;;;-146.32;100.00;63746.28;659635;29;102401;-63
2021/05/06 01:11:34;;;;;;;3.63;2.10;;;;;;;-146.32;100.00;63746.28;661090;29;62509;-63
2021/05/06 01:12:00;;;;;;;3.45;2.00;;;;;;;-146.32;100.00;63746.28;659586;29;61022;-64
2021/05/06 01:12:22;;;;;;;3.72;1.80;;;;;;;-146.32;100.00;63746.28;660208;29;38695;-63
2021/05/06 01:12:44;;;;;;;6.45;1.95;;;;;;;-146.32;100.00;63746.28;661067;29;22392;-63
2021/05/06 01:13:17;;;;;;;5.35;1.67;;;;;;;-146.32;100.00;63746.28;659961;29;60720;-63
2021/05/06 01:13:41;;;;;;;4.25;1.65;;;;;;;-146.32;100.00;63746.28;654366;30;136179;-63
2021/05/06 01:14:04;;;;;;;3.15;1.60;;;;;;;-146.32;100.00;63746.28;658246;29;92336;-64
2021/05/06 01:14:25;;;;;;;6.28;1.90;;;;;;;-146.32;100.00;63746.28;660054;29;46319;-63
2021/05/06 01:14:50;;;;;;;4.22;2.20;;;;;;;-146.32;100.00;63746.28;660350;29;38874;-64
2021/05/06 01:15:13;;;;;;;3.53;2.30;;;;;;;-146.32;100.00;63746.28;661782;29;1973;-64
2021/05/06 01:15:34;;;;;;;4.40;2.00;;;;;;;-146.32;100.00;63746.28;663253;29;1251;-64
2021/05/06 01:15:56;;;;;;;5.25;1.90;;;;;;;-146.32;100.00;63746.28;660217;29;21529;-64
2021/05/06 01:16:17;;;;;;;2.35;1.70;;;;;;;-146.32;100.00;63746.28;659882;29;4783;-64
2021/05/06 01:16:39;;;;;;;3.38;1.70;;;;;;;-146.32;100.00;63746.28;656322;30;44338;-64
2021/05/06 01:17:00;;;;;;;3.75;1.80;;;;;;;-146.32;100.00;63746.28;657819;30;23563;-64
2021/05/06 01:17:22;;;;;;;4.72;1.70;;;;;;;-146.32;100.00;63746.28;657254;30;21690;-63
2021/05/06 01:17:43;;;;;;;4.93;1.92;;;;;;;-146.32;100.00;63746.28;656081;29;47334;-63
2021/05/06 01:18:04;;;;;;;2.70;1.85;;;;;;;-146.32;100.00;63746.28;660444;29;7505;-63
2021/05/06 01:18:26;;;;;;;3.33;1.60;;;;;;;-146.32;100.00;63746.28;661204;29;23463;-64
2021/05/06 01:18:47;;;;;;;2.90;1.75;;;;;;;-146.32;100.00;63746.28;662330;29;44157;-62
2021/05/06 01:19:08;;;;;;;2.40;1.80;;;;;;;-146.32;100.00;63746.28;660743;29;22476;-63
2021/05/06 01:19:29;;;;;;;5.15;2.30;;;;;;;-146.32;100.00;63746.28;660529;29;22387;-64
2021/05/06 01:19:50;;;;;;;3.78;1.95;;;;;;;-146.32;100.00;63746.28;655788;30;20145;-64
2021/05/06 01:20:13;;;;;;;3.13;1.60;;;;;;;-146.32;100.00;63746.28;656175;30;22343;-63
2021/05/06 01:20:34;;;;;;;2.83;1.70;;;;;;;-146.32;100.00;63746.28;652669;30;47550;-63
2021/05/06 01:20:59;;;;;;;3.83;1.70;;;;;;;-146.32;100.00;63746.28;653421;30;23771;-63
2021/05/06 01:21:20;;;;;;;3.33;1.55;;;;;;;-146.32;100.00;63746.28;655202;30;36571;-63
2021/05/06 01:21:43;;;;;;;3.10;1.88;;;;;;;-146.32;100.00;63746.28;655916;29;70224;-63
2021/05/06 01:22:05;;;;;;;4.78;2.00;;;;;;;-146.32;100.00;63746.28;659577;29;22520;-63
2021/05/06 01:22:26;;;;;;;4.80;1.80;;;;;;;-146.32;100.00;63746.28;658683;29;45434;-63
2021/05/06 01:22:48;;;;;;;3.97;1.73;;;;;;;-146.32;100.00;63746.28;659866;29;21125;-64
2021/05/06 01:23:09;;;;;;;4.75;1.80;;;;;;;-146.32;100.00;63746.28;660411;29;22441;-63
2021/05/06 01:23:32;;;;;;;3.92;1.70;;;;;;;-146.32;100.00;63746.28;660283;29;45271;-63
2021/05/06 01:23:54;;;;;;;2.53;1.58;;;;;;;-146.32;100.00;63746.28;659654;29;59505;-63
2021/05/06 01:24:15;;;;;;;4.30;2.05;;;;;;;-146.32;100.00;63746.28;660059;29;44951;-64
2021/05/06 01:24:36;;;;;;;3.95;2.10;;;;;;;-146.32;100.00;63746.28;661153;29;22431;-63
2021/05/06 01:24:59;;;;;;;2.22;1.80;;;;;;;-146.32;100.00;63746.28;661095;29;21539;-62
2021/05/06 01:25:21;;;;;;;1.70;1.60;;;;;;;-146.32;100.00;63746.28;659949;29;69466;-63
2021/05/06 01:25:48;;;;;;;2.88;1.60;;;;;;;-146.32;100.00;63746.28;662479;29;46355;-63
2021/05/06 01:26:13;;;;;;;4.40;1.60;;;;;;;-146.32;100.00;63746.28;658737;29;132501;-63
2021/05/06 01:26:38;;;;;;;6.15;1.67;;;;;;;-146.32;100.00;63746.28;660869;29;98235;-62
2021/05/06 01:27:03;;;;;;;3.40;1.88;;;;;;;-146.32;100.00;63746.28;660690;29;114001;-63
2021/05/06 01:27:31;;;;;;;2.83;1.80;;;;;;;-146.32;100.00;63746.28;659648;29;116200;-63
2021/05/06 01:27:58;;;;;;;3.28;1.70;;;;;;;-146.32;100.00;63746.28;660001;29;135100;-63
2021/05/06 01:28:23;;;;;;;5.88;1.90;;;;;;;-146.32;100.00;63746.28;657545;29;125370;-64
2021/05/06 01:28:51;;;;;;;3.90;1.80;;;;;;;-146.32;100.00;63746.28;658381;29;87152;-64
2021/05/06 01:29:17;;;;;;;3.55;1.63;;;;;;;-146.32;100.00;63746.28;656801;29;137845;-63
2021/05/06 01:29:43;;;;;;;3.22;1.90;;;;;;;-146.32;100.00;63746.28;656729;29;128677;-63
2021/05/06 01:30:13;;;;;;;3.13;1.80;;;;;;;-146.32;100.00;63746.28;657136;29;120790;-64
2021/05/06 01:30:37;;;;;;;4.07;1.75;;;;;;;-146.32;100.00;63746.28;657253;29;136328;-62
2021/05/06 01:31:03;;;;;;;4.50;2.05;;;;;;;-146.32;100.00;63746.28;657691;29;84099;-63
2021/05/06 01:31:27;;;;;;;4.70;1.75;;;;;;;-146.32;100.00;63746.28;656244;29;138171;-63
2021/05/06 01:31:53;;;;;;;4.45;1.80;;;;;;;-146.32;100.00;63746.28;657777;29;87409;-64
2021/05/06 01:32:20;;;;;;;5.65;1.88;;;;;;;-146.32;100.00;63746.28;657636;29;125770;-63
2021/05/06 01:32:45;;;;;;;5.18;1.80;;;;;;;-146.32;100.00;63746.28;655813;29;137077;-63
2021/05/06 01:33:12;;;;;;;6.30;1.90;;;;;;;-146.32;100.00;63746.28;660796;29;69068;-63
2021/05/06 01:33:38;;;;;;;4.13;1.70;;;;;;;-146.32;100.00;63746.28;655430;29;138833;-63
2021/05/06 01:34:05;;;;;;;3.08;1.77;;;;;;;-146.32;100.00;63746.28;653605;29;138484;-63
2021/05/06 01:34:26;;;;;;;4.07;2.13;;;;;;;-146.32;100.00;63746.28;653555;29;126096;-63
2021/05/06 01:34:52;;;;;;;4.90;1.92;;;;;;;-146.32;100.00;63746.28;659900;29;22400;-63
2021/05/06 01:35:17;;;;;;;5.43;1.83;;;;;;;-146.32;100.00;63746.28;658268;29;113686;-62
2021/05/06 01:35:42;;;;;;;4.90;1.80;;;;;;;-146.32;100.00;63746.28;658520;29;137996;-63
2021/05/06 01:36:07;;;;;;;4.90;1.90;;;;;;;-146.32;100.00;63746.28;658402;29;113264;-63
2021/05/06 01:36:32;;;;;;;4.53;1.80;;;;;;;-146.32;100.00;63746.28;659600;29;98919;-63
2021/05/06 01:36:57;;;;;;;2.95;1.60;;;;;;;-146.32;100.00;63746.28;659657;29;92414;-64
2021/05/06 01:37:22;;;;;;;4.65;1.83;;;;;;;-146.32;100.00;63746.28;653510;30;130393;-63
2021/05/06 01:37:53;;;;;;;5.10;1.85;;;;;;;-146.32;100.00;63746.28;656538;29;128172;-63
2021/05/06 01:38:35;;;;;;;4.43;1.85;;;;;;;-146.32;100.00;63746.28;656163;29;130946;-63
2021/05/06 01:39:10;;;;;;;4.47;1.80;;;;;;;-146.32;100.00;63746.28;655191;29;143604;-63
2021/05/06 01:41:27;;;;;;;4.28;1.90;;;;;;;-146.32;100.00;63746.28;653779;30;136029;-62
2021/05/06 01:41:56;;;;;;;2.33;1.60;;;;;;;-146.32;100.00;63746.28;657176;29;137174;-63
2021/05/06 01:42:19;;;;;;;3.45;1.70;;;;;;;-146.32;100.00;63746.28;657710;29;126596;-64
2021/05/06 01:42:43;;;;;;;4.00;2.10;;;;;;;-146.32;100.00;63746.28;656906;30;67455;-64
2021/05/06 01:43:09;;;;;;;2.45;1.73;;;;;;;-146.32;100.00;63746.28;655747;30;92307;-63
2021/05/06 01:43:39;;;;;;;2.65;1.70;;;;;;;-146.32;100.00;63746.28;656555;29;115203;-63
2021/05/06 01:44:05;;;;;;;4.05;1.88;;;;;;;-146.32;100.00;63746.28;655431;29;136259;-63
2021/05/06 01:45:18;;;;;;;5.70;1.95;;;;;;;-146.32;100.00;63746.28;649824;30;137872;-63
2021/05/06 01:45:51;;;;;;;3.15;1.60;;;;;;;-146.32;100.00;63746.28;647966;30;135402;-63
2021/05/06 01:47:08;;;;;;;3.20;1.73;;;;;;;-146.32;100.00;63746.28;656376;29;133483;-63
2021/05/06 01:47:33;;;;;;;2.30;1.60;;;;;;;-146.32;100.00;63746.28;657769;29;137976;-63
2021/05/06 01:47:59;;;;;;;2.85;1.60;;;;;;;-146.32;100.00;63746.28;659251;29;140002;-63
2021/05/06 01:48:36;;;;;;;3.25;1.70;;;;;;;-146.32;100.00;63746.28;659152;29;138858;-63
2021/05/06 01:50:10;;;;;;;6.53;2.15;;;;;;;-146.32;100.00;63746.28;657085;29;138774;-63
2021/05/06 01:50:50;;;;;;;3.50;1.70;;;;;;;-146.32;100.00;63746.28;657165;29;137744;-63
2021/05/06 01:57:29;;;;;;;3.65;1.98;;;;;;;-146.32;100.00;63746.28;658552;29;160697;-62
2021/05/06 01:57:49;;;;;;;3.42;1.60;;;;;;;-146.32;100.00;63746.28;655728;29;160267;-63
2021/05/06 01:58:43;;;;;;;3.42;1.67;;;;;;;-146.32;100.00;63746.28;659840;29;62727;-63
2021/05/06 01:59:09;;;;;;;3.58;1.90;;;;;;;-146.32;100.00;63746.28;661272;29;61561;-63
2021/05/06 01:59:39;;;;;;;3.47;2.33;;;;;;;-146.32;100.00;63746.28;659251;29;116120;-61
2021/05/06 02:00:04;;;;;;;3.17;1.73;;;;;;;-146.32;100.00;63746.28;659573;29;137897;-62
2021/05/06 02:00:27;;;;;;;2.72;1.70;;;;;;;-146.32;100.00;63746.28;660676;29;114814;-61
2021/05/06 02:01:01;;;;;;;4.20;1.80;;;;;;;-146.32;100.00;63746.28;659495;29;60797;-63
2021/05/06 02:01:28;;;;;;;3.20;1.70;;;;;;;-146.32;100.00;63746.28;657116;29;137699;-64
2021/05/06 02:01:50;;;;;;;4.85;2.10;;;;;;;-146.32;100.00;63746.28;661302;29;1271;-62
2021/05/06 02:02:11;;;;;;;2.60;1.90;;;;;;;-146.32;100.00;63746.28;660995;29;20063;-61
2021/05/06 02:02:34;;;;;;;4.03;1.80;;;;;;;-146.32;100.00;63746.28;660217;29;32856;-63
2021/05/06 02:02:56;;;;;;;5.07;2.00;;;;;;;-146.32;100.00;63746.28;660277;29;27692;-61
2021/05/06 02:03:21;;;;;;;4.03;2.08;;;;;;;-146.32;100.00;63746.28;657471;29;131735;-63
2021/05/06 02:03:47;;;;;;;2.40;1.70;;;;;;;-146.32;100.00;63746.28;657025;29;128262;-63
2021/05/06 02:04:08;;;;;;;2.00;1.80;;;;;;;-146.32;100.00;63746.28;661374;29;17570;-63
2021/05/06 02:04:30;;;;;;;2.70;1.77;;;;;;;-146.32;100.00;63746.28;659996;29;43953;-63
2021/05/06 02:04:52;;;;;;;3.10;1.83;;;;;;;-146.32;100.00;63746.28;661524;29;44513;-63
2021/05/06 02:05:16;;;;;;;2.30;1.85;;;;;;;-146.32;100.00;63746.28;658789;29;85307;-63
2021/05/06 02:05:38;;;;;;;3.60;1.98;;;;;;;-146.32;100.00;63746.28;659871;29;46597;-63
2021/05/06 02:06:00;;;;;;;4.13;1.80;;;;;;;-146.32;100.00;63746.28;660711;29;16552;-63
2021/05/06 02:06:22;;;;;;;3.00;1.67;;;;;;;-146.32;100.00;63746.28;659028;29;70490;-62
2021/05/06 02:06:45;;;;;;;3.22;1.77;;;;;;;-146.32;100.00;63746.28;661439;29;7672;-64
2021/05/06 02:07:22;;;;;;;3.97;1.80;;;;;;;-146.32;100.00;63746.28;659139;29;60553;-62
2021/05/06 02:07:49;;;;;;;5.07;1.90;;;;;;;-146.32;100.00;63746.28;655351;29;124309;-63
2021/05/06 02:08:14;;;;;;;3.70;1.95;;;;;;;-146.32;100.00;63746.28;654341;30;107769;-63
2021/05/06 02:08:40;;;;;;;4.05;2.05;;;;;;;-146.32;100.00;63746.28;655814;30;62251;-61
2021/05/06 02:09:08;;;;;;;3.13;1.83;;;;;;;-146.32;100.00;63746.28;658634;29;60879;-63
2021/05/06 02:09:29;;;;;;;3.30;1.92;;;;;;;-146.32;100.00;63746.28;662043;29;22589;-62
2021/05/06 02:09:51;;;;;;;2.95;1.88;;;;;;;-146.32;100.00;63746.28;657806;29;46940;-63
2021/05/06 02:10:19;;;;;;;5.25;1.98;;;;;;;-146.32;100.00;63746.28;657391;30;37516;-63
2021/05/06 02:10:41;;;;;;;6.70;1.90;;;;;;;-146.32;100.00;63746.28;659723;29;37825;-62
2021/05/06 02:11:05;;;;;;;5.32;1.77;;;;;;;-146.32;100.00;63746.28;658680;29;13372;-63
2021/05/06 02:11:48;;;;;;;3.92;1.70;;;;;;;-146.32;100.00;63746.28;657574;29;136824;-61
2021/05/06 02:12:20;;;;;;;2.92;1.70;;;;;;;-146.32;100.00;63746.28;656201;29;127955;-62
2021/05/06 02:12:44;;;;;;;2.58;1.63;;;;;;;-146.32;100.00;63746.28;658987;29;69493;-62
2021/05/06 02:13:05;;;;;;;2.65;1.60;;;;;;;-146.32;100.00;63746.28;661035;29;23417;-63
2021/05/06 02:13:29;;;;;;;3.75;1.58;;;;;;;-146.32;100.00;63746.28;660499;29;20177;-62
2021/05/06 02:13:54;;;;;;;3.40;1.77;;;;;;;-146.32;100.00;63746.28;657982;30;39189;-63
2021/05/06 02:14:16;;;;;;;3.10;1.83;;;;;;;-146.32;100.00;63746.28;659839;29;15814;-63
2021/05/06 02:14:50;;;;;;;3.60;1.80;;;;;;;-146.32;100.00;63746.28;656156;29;128733;-62
2021/05/06 02:15:17;;;;;;;4.20;1.90;;;;;;;-146.32;100.00;63746.28;655272;29;161188;-63
2021/05/06 02:15:40;;;;;;;3.53;1.80;;;;;;;-146.32;100.00;63746.28;656637;29;137933;-63
2021/05/06 02:16:03;;;;;;;3.78;1.80;;;;;;;-146.32;100.00;63746.28;660162;29;92269;-63
2021/05/06 02:16:33;;;;;;;3.60;1.70;;;;;;;-146.32;100.00;63746.28;660449;29;69459;-61
2021/05/06 02:16:55;;;;;;;3.53;1.80;;;;;;;-146.32;100.00;63746.28;660017;29;136201;-63
2021/05/06 02:17:16;;;;;;;6.00;2.05;;;;;;;-146.32;100.00;63746.28;662830;29;23902;-63
2021/05/06 02:17:37;;;;;;;3.50;1.73;;;;;;;-146.32;100.00;63746.28;663514;29;1029;-63
2021/05/06 02:17:59;;;;;;;2.75;1.83;;;;;;;-146.32;100.00;63746.28;662572;29;14407;-62
2021/05/06 02:18:21;;;;;;;2.17;1.70;;;;;;;-146.32;100.00;63746.28;660003;29;69227;-62
2021/05/06 02:18:44;;;;;;;4.07;2.10;;;;;;;-146.32;100.00;63746.28;660732;29;46423;-61
2021/05/06 02:19:06;;;;;;;5.30;2.20;;;;;;;-146.32;100.00;63746.28;660704;29;43668;-62
2021/05/06 02:19:32;;;;;;;2.90;1.98;;;;;;;-146.32;100.00;63746.28;660335;29;93086;-61
2021/05/06 02:19:53;;;;;;;3.05;1.80;;;;;;;-146.32;100.00;63746.28;661315;29;92063;-62
2021/05/06 02:20:16;;;;;;;4.47;2.15;;;;;;;-146.32;100.00;63746.28;663151;29;22361;-62
2021/05/06 02:20:39;;;;;;;3.53;2.20;;;;;;;-146.32;100.00;63746.28;661854;29;67487;-62
2021/05/06 02:21:00;;;;;;;4.55;2.05;;;;;;;-146.32;100.00;63746.28;659323;29;64591;-63
2021/05/06 02:21:22;;;;;;;4.03;1.75;;;;;;;-146.32;100.00;63746.28;659976;29;23504;-63
2021/05/06 02:21:50;;;;;;;5.55;1.85;;;;;;;-146.32;100.00;63746.28;657094;29;126127;-60
2021/05/06 02:22:11;;;;;;;3.97;1.80;;;;;;;-146.32;100.00;63746.28;661145;29;21834;-63
2021/05/06 02:22:32;;;;;;;5.43;1.90;;;;;;;-146.32;100.00;63746.28;660663;29;22185;-62
2021/05/06 02:22:54;;;;;;;3.55;1.80;;;;;;;-146.32;100.00;63746.28;662169;29;23418;-62
2021/05/06 02:23:16;;;;;;;4.25;1.77;;;;;;;-146.32;100.00;63746.28;662477;29;46331;-62
2021/05/06 02:23:38;;;;;;;2.03;1.60;;;;;;;-146.32;100.00;63746.28;662881;29;44384;-62
2021/05/06 02:24:00;;;;;;;4.65;1.80;;;;;;;-146.32;100.00;63746.28;662949;29;46416;-63
2021/05/06 02:24:22;;;;;;;4.53;1.75;;;;;;;-146.32;100.00;63746.28;658910;29;67517;-63
2021/05/06 02:24:43;;;;;;;2.20;1.60;;;;;;;-146.32;100.00;63746.28;660824;29;22390;-61
2021/05/06 02:25:06;;;;;;;4.25;1.70;;;;;;;-146.32;100.00;63746.28;659857;29;22396;-63
2021/05/06 02:25:27;;;;;;;4.22;1.80;;;;;;;-146.32;100.00;63746.28;658028;29;60906;-62
2021/05/06 02:25:50;;;;;;;3.67;1.60;;;;;;;-146.32;100.00;63746.28;659138;29;26217;-63
2021/05/06 02:26:11;;;;;;;4.50;1.65;;;;;;;-146.32;100.00;63746.28;661658;29;1000;-63
2021/05/06 02:26:34;;;;;;;2.88;1.88;;;;;;;-146.32;100.00;63746.28;662700;29;22398;-63
2021/05/06 02:26:55;;;;;;;3.63;1.70;;;;;;;-146.32;100.00;63746.28;661788;29;68478;-63
2021/05/06 02:27:16;;;;;;;1.98;1.60;;;;;;;-146.32;100.00;63746.28;663886;29;21556;-63
2021/05/06 02:27:37;;;;;;;2.67;1.90;;;;;;;-146.32;100.00;63746.28;663393;29;23502;-61
2021/05/06 02:27:58;;;;;;;2.55;1.83;;;;;;;-146.32;100.00;63746.28;660891;29;23488;-63
2021/05/06 02:28:20;;;;;;;4.65;2.00;;;;;;;-146.32;100.00;63746.28;661161;29;22394;-62
2021/05/06 02:28:41;;;;;;;3.67;2.00;;;;;;;-146.32;100.00;63746.28;661134;29;22381;-62
2021/05/06 02:29:02;;;;;;;3.78;2.25;;;;;;;-146.32;100.00;63746.28;660448;29;22551;-63
2021/05/06 02:29:24;;;;;;;2.13;1.80;;;;;;;-146.32;100.00;63746.28;659841;29;44243;-63
2021/05/06 02:29:46;;;;;;;3.08;1.90;;;;;;;-146.32;100.00;63746.28;660306;29;46865;-62
2021/05/06 02:30:08;;;;;;;5.63;2.20;;;;;;;-146.32;100.00;63746.28;662617;29;44351;-63
2021/05/06 02:30:30;;;;;;;5.43;2.00;;;;;;;-146.32;100.00;63746.28;663395;29;29641;-61
2021/05/06 02:30:51;;;;;;;3.30;1.85;;;;;;;-146.32;100.00;63746.28;662323;29;40639;-63
2021/05/06 02:31:13;;;;;;;4.35;1.80;;;;;;;-146.32;100.00;63746.28;660774;29;22345;-61
2021/05/06 02:31:35;;;;;;;5.57;1.95;;;;;;;-146.32;100.00;63746.28;659852;29;44379;-63
2021/05/06 02:31:56;;;;;;;5.82;1.80;;;;;;;-146.32;100.00;63746.28;660929;29;22417;-63
2021/05/06 02:32:17;;;;;;;4.28;1.95;;;;;;;-146.32;100.00;63746.28;661003;29;22394;-62
2021/05/06 02:32:38;;;;;;;4.10;1.70;;;;;;;-146.32;100.00;63746.28;660279;29;46727;-62
2021/05/06 02:33:02;;;;;;;6.53;1.85;;;;;;;-146.32;100.00;63746.28;661576;29;22485;-62
2021/05/06 02:33:23;;;;;;;4.82;1.92;;;;;;;-146.32;100.00;63746.28;661709;29;69244;-62
2021/05/06 02:33:45;;;;;;;3.25;1.80;;;;;;;-146.32;100.00;63746.28;664304;29;8438;-61
2021/05/06 02:34:06;;;;;;;4.60;1.98;;;;;;;-146.32;100.00;63746.28;661938;29;60096;-62
2021/05/06 02:34:27;;;;;;;3.80;1.85;;;;;;;-146.32;100.00;63746.28;662835;29;23532;-61
2021/05/06 02:34:48;;;;;;;6.00;1.88;;;;;;;-146.32;100.00;63746.28;663450;29;23386;-62
2021/05/06 02:35:10;;;;;;;5.10;1.90;;;;;;;-146.32;100.00;63746.28;662653;29;23496;-62
2021/05/06 02:35:31;;;;;;;4.40;1.87;;;;;;;-146.32;100.00;63746.28;662993;29;45257;-63
2021/05/06 02:35:52;;;;;;;5.85;1.80;;;;;;;-146.32;100.00;63746.28;662752;29;46347;-63
2021/05/06 02:36:13;;;;;;;5.20;2.03;;;;;;;-146.32;100.00;63746.28;663990;29;15001;-63
2021/05/06 02:36:35;;;;;;;2.60;1.80;;;;;;;-146.32;100.00;63746.28;663818;29;14606;-63
2021/05/06 02:36:57;;;;;;;2.75;1.80;;;;;;;-146.32;100.00;63746.28;662825;29;44377;-63
2021/05/06 02:37:18;;;;;;;3.85;1.73;;;;;;;-146.32;100.00;63746.28;663439;29;21518;-63
2021/05/06 02:37:39;;;;;;;2.80;1.80;;;;;;;-146.32;100.00;63746.28;663564;29;20578;-63
2021/05/06 02:38:01;;;;;;;2.90;1.90;;;;;;;-146.32;100.00;63746.28;662860;29;22499;-62
2021/05/06 02:38:22;;;;;;;2.20;1.80;;;;;;;-146.32;100.00;63746.28;661985;29;23638;-62
2021/05/06 02:38:43;;;;;;;3.65;1.90;;;;;;;-146.32;100.00;63746.28;662380;29;21759;-63
2021/05/06 02:39:04;;;;;;;5.05;1.95;;;;;;;-146.32;100.00;63746.28;660884;29;23488;-63
2021/05/06 02:39:25;;;;;;;3.90;2.10;;;;;;;-146.32;100.00;63746.28;660782;29;44390;-63
2021/05/06 02:39:47;;;;;;;3.80;2.10;;;;;;;-146.32;100.00;63746.28;662085;29;22425;-63
2021/05/06 02:40:10;;;;;;;5.25;2.30;;;;;;;-146.32;100.00;63746.28;662947;29;46337;-63
2021/05/06 02:40:31;;;;;;;4.88;2.00;;;;;;;-146.32;100.00;63746.28;662704;29;54158;-63
2021/05/06 02:40:53;;;;;;;3.47;1.90;;;;;;;-146.32;100.00;63746.28;663440;29;23494;-62
2021/05/06 02:41:14;;;;;;;2.70;1.70;;;;;;;-146.32;100.00;63746.28;664273;29;6577;-63
2021/05/06 02:41:35;;;;;;;4.43;1.90;;;;;;;-146.32;100.00;63746.28;663648;29;22481;-63
2021/05/06 02:41:56;;;;;;;4.50;2.00;;;;;;;-146.32;100.00;63746.28;662880;29;44457;-63
2021/05/06 02:42:17;;;;;;;4.40;2.00;;;;;;;-146.32;100.00;63746.28;663550;29;23404;-62
2021/05/06 02:42:39;;;;;;;2.53;1.63;;;;;;;-146.32;100.00;63746.28;663562;29;22588;-63
2021/05/06 02:43:00;;;;;;;2.80;1.70;;;;;;;-146.32;100.00;63746.28;663688;29;22357;-63
2021/05/06 02:43:21;;;;;;;5.63;1.73;;;;;;;-146.32;100.00;63746.28;662137;29;44827;-63
2021/05/06 02:43:43;;;;;;;3.47;1.88;;;;;;;-146.32;100.00;63746.28;663168;29;23151;-62
2021/05/06 02:44:04;;;;;;;2.67;1.85;;;;;;;-146.32;100.00;63746.28;663499;29;18075;-61
2021/05/06 02:44:25;;;;;;;3.53;1.85;;;;;;;-146.32;100.00;63746.28;663316;29;22516;-63
2021/05/06 02:44:46;;;;;;;5.30;2.20;;;;;;;-146.32;100.00;63746.28;663141;29;23490;-63
2021/05/06 02:45:10;;;;;;;5.20;2.00;;;;;;;-146.32;100.00;63746.28;662834;29;46306;-63
2021/05/06 02:45:31;;;;;;;5.07;1.88;;;;;;;-146.32;100.00;63746.28;661716;29;70271;-63
2021/05/06 02:45:52;;;;;;;3.13;1.70;;;;;;;-146.32;100.00;63746.28;663493;29;24543;-62
2021/05/06 02:46:16;;;;;;;2.28;1.58;;;;;;;-146.32;100.00;63746.28;663724;29;14802;-63